sensor_id;sensor_type;location;lat;lon;timestamp;P1;durP1;ratioP1;P2;durP2;ratioP2
81815;SDS011;71249;52.084;5.304;2023-07-31T00:01:57;2.9;;;2.31;;
81815;SDS011;71249;52.084;5.304;2023-07-31T00:03:34;2.0;;;1.7;;
81815;SDS011;71249;52.084;5.304;2023-07-31T00:05:10;2.7;;;2.0;;
81815;SDS011;71249;52.084;5.304;2023-07-31T00:06:48;2.7;;;2.21;;
81815;SDS011;71249;52.084;5.304;2023-07-31T00:10:01;3.6;;;2.8;;
81815;SDS011;71249;52.084;5.304;2023-07-31T00:11:38;3.3;;;2.4;;
81815;SDS011;71249;52.084;5.304;2023-07-31T00:13:15;3.2;;;2.6;;
81815;SDS011;71249;52.084;5.304;2023-07-31T00:16:28;2.8;;;2.4;;
81815;SDS011;71249;52.084;5.304;2023-07-31T00:18:05;5.2;;;2.7;;
81815;SDS011;71249;52.084;5.304;2023-07-31T00:19:43;5.8;;;3.3;;
81815;SDS011;71249;52.084;5.304;2023-07-31T00:22:57;6.7;;;3.2;;
81815;SDS011;71249;52.084;5.304;2023-07-31T00:24:34;5.3;;;3.2;;
81815;SDS011;71249;52.084;5.304;2023-07-31T00:26:10;6.7;;;3.7;;
81815;SDS011;71249;52.084;5.304;2023-07-31T00:27:47;9.9;;;4.3;;
81815;SDS011;71249;52.084;5.304;2023-07-31T00:31:01;6.8;;;4.2;;
81815;SDS011;71249;52.084;5.304;2023-07-31T00:32:38;9.21;;;4.2;;
81815;SDS011;71249;52.084;5.304;2023-07-31T00:34:14;11.0;;;5.2;;
81815;SDS011;71249;52.084;5.304;2023-07-31T00:37:28;11.0;;;5.2;;
81815;SDS011;71249;52.084;5.304;2023-07-31T00:39:04;8.6;;;4.1;;
81815;SDS011;71249;52.084;5.304;2023-07-31T00:40:42;14.6;;;5.8;;
81815;SDS011;71249;52.084;5.304;2023-07-31T00:43:54;16.2;;;6.0;;
81815;SDS011;71249;52.084;5.304;2023-07-31T00:45:31;17.0;;;6.2;;
81815;SDS011;71249;52.084;5.304;2023-07-31T00:47:08;24.3;;;8.2;;
81815;SDS011;71249;52.084;5.304;2023-07-31T00:48:46;24.0;;;8.2;;
81815;SDS011;71249;52.084;5.304;2023-07-31T00:52:01;29.4;;;9.9;;
81815;SDS011;71249;52.084;5.304;2023-07-31T00:53:37;27.9;;;9.21;;
81815;SDS011;71249;52.084;5.304;2023-07-31T00:55:14;27.8;;;9.0;;
81815;SDS011;71249;52.084;5.304;2023-07-31T00:58:31;30.0;;;9.4;;
81815;SDS011;71249;52.084;5.304;2023-07-31T01:00:07;29.6;;;9.6;;
81815;SDS011;71249;52.084;5.304;2023-07-31T01:01:46;29.7;;;9.6;;
81815;SDS011;71249;52.084;5.304;2023-07-31T01:03:23;29.9;;;10.5;;
81815;SDS011;71249;52.084;5.304;2023-07-31T01:06:40;23.5;;;8.81;;
81815;SDS011;71249;52.084;5.304;2023-07-31T01:08:40;28.5;;;10.8;;
81815;SDS011;71249;52.084;5.304;2023-07-31T01:10:26;28.2;;;10.4;;
81815;SDS011;71249;52.084;5.304;2023-07-31T01:12:10;23.8;;;8.9;;
81815;SDS011;71249;52.084;5.304;2023-07-31T01:13:50;25.1;;;9.1;;
81815;SDS011;71249;52.084;5.304;2023-07-31T01:17:04;29.7;;;10.7;;
81815;SDS011;71249;52.084;5.304;2023-07-31T01:18:41;28.8;;;9.6;;
81815;SDS011;71249;52.084;5.304;2023-07-31T01:20:20;26.4;;;9.21;;
81815;SDS011;71249;52.084;5.304;2023-07-31T01:24:20;30.6;;;9.81;;
81815;SDS011;71249;52.084;5.304;2023-07-31T01:26:23;24.4;;;9.31;;
81815;SDS011;71249;52.084;5.304;2023-07-31T01:29:51;23.8;;;9.5;;
81815;SDS011;71249;52.084;5.304;2023-07-31T01:31:35;27.6;;;9.9;;
81815;SDS011;71249;52.084;5.304;2023-07-31T01:33:15;23.1;;;9.4;;
81815;SDS011;71249;52.084;5.304;2023-07-31T01:34:53;25.4;;;9.31;;
81815;SDS011;71249;52.084;5.304;2023-07-31T01:38:08;22.4;;;8.6;;
81815;SDS011;71249;52.084;5.304;2023-07-31T01:39:45;23.4;;;8.81;;
81815;SDS011;71249;52.084;5.304;2023-07-31T01:41:21;22.8;;;8.71;;
81815;SDS011;71249;52.084;5.304;2023-07-31T01:44:35;24.3;;;9.71;;
81815;SDS011;71249;52.084;5.304;2023-07-31T01:46:11;23.0;;;9.31;;
81815;SDS011;71249;52.084;5.304;2023-07-31T01:47:48;29.3;;;11.0;;
81815;SDS011;71249;52.084;5.304;2023-07-31T01:49:25;23.6;;;8.81;;
81815;SDS011;71249;52.084;5.304;2023-07-31T01:52:39;26.4;;;10.0;;
81815;SDS011;71249;52.084;5.304;2023-07-31T01:54:16;19.7;;;9.0;;
81815;SDS011;71249;52.084;5.304;2023-07-31T01:55:52;24.0;;;9.4;;
81815;SDS011;71249;52.084;5.304;2023-07-31T01:59:04;21.3;;;9.0;;
81815;SDS011;71249;52.084;5.304;2023-07-31T02:00:42;27.6;;;10.6;;
81815;SDS011;71249;52.084;5.304;2023-07-31T02:02:18;18.8;;;8.71;;
81815;SDS011;71249;52.084;5.304;2023-07-31T02:03:55;19.7;;;8.9;;
81815;SDS011;71249;52.084;5.304;2023-07-31T02:08:47;19.91;;;8.1;;
81815;SDS011;71249;52.084;5.304;2023-07-31T02:10:24;18.91;;;7.4;;
81815;SDS011;71249;52.084;5.304;2023-07-31T02:13:37;15.3;;;7.3;;
81815;SDS011;71249;52.084;5.304;2023-07-31T02:15:13;20.5;;;8.4;;
81815;SDS011;71249;52.084;5.304;2023-07-31T02:16:50;18.0;;;7.6;;
81815;SDS011;71249;52.084;5.304;2023-07-31T02:20:04;19.5;;;7.7;;
81815;SDS011;71249;52.084;5.304;2023-07-31T02:21:42;16.0;;;6.6;;
81815;SDS011;71249;52.084;5.304;2023-07-31T02:23:19;19.7;;;7.6;;
81815;SDS011;71249;52.084;5.304;2023-07-31T02:24:55;15.6;;;7.1;;
81815;SDS011;71249;52.084;5.304;2023-07-31T02:28:08;18.5;;;6.6;;
81815;SDS011;71249;52.084;5.304;2023-07-31T02:29:45;18.5;;;6.6;;
81815;SDS011;71249;52.084;5.304;2023-07-31T02:31:21;19.2;;;6.9;;
81815;SDS011;71249;52.084;5.304;2023-07-31T02:34:35;15.1;;;6.4;;
81815;SDS011;71249;52.084;5.304;2023-07-31T02:36:12;15.9;;;6.5;;
81815;SDS011;71249;52.084;5.304;2023-07-31T02:37:49;18.11;;;6.8;;
81815;SDS011;71249;52.084;5.304;2023-07-31T02:41:03;17.7;;;6.9;;
81815;SDS011;71249;52.084;5.304;2023-07-31T02:42:39;21.4;;;7.7;;
81815;SDS011;71249;52.084;5.304;2023-07-31T02:44:16;19.2;;;7.8;;
81815;SDS011;71249;52.084;5.304;2023-07-31T02:45:52;17.7;;;6.8;;
81815;SDS011;71249;52.084;5.304;2023-07-31T02:49:06;19.11;;;6.5;;
81815;SDS011;71249;52.084;5.304;2023-07-31T02:50:42;16.4;;;6.5;;
81815;SDS011;71249;52.084;5.304;2023-07-31T02:52:19;17.11;;;7.0;;
81815;SDS011;71249;52.084;5.304;2023-07-31T02:55:32;14.7;;;7.2;;
81815;SDS011;71249;52.084;5.304;2023-07-31T02:57:09;21.7;;;8.71;;
81815;SDS011;71249;52.084;5.304;2023-07-31T02:58:45;20.9;;;7.8;;
81815;SDS011;71249;52.084;5.304;2023-07-31T03:01:58;22.6;;;8.6;;
81815;SDS011;71249;52.084;5.304;2023-07-31T03:03:36;19.7;;;7.8;;
81815;SDS011;71249;52.084;5.304;2023-07-31T03:05:13;22.3;;;8.1;;
81815;SDS011;71249;52.084;5.304;2023-07-31T03:06:50;20.2;;;7.7;;
81815;SDS011;71249;52.084;5.304;2023-07-31T03:10:03;21.7;;;8.4;;
81815;SDS011;71249;52.084;5.304;2023-07-31T03:11:40;21.4;;;8.2;;
81815;SDS011;71249;52.084;5.304;2023-07-31T03:13:17;25.5;;;10.1;;
81815;SDS011;71249;52.084;5.304;2023-07-31T03:16:31;24.5;;;8.71;;
81815;SDS011;71249;52.084;5.304;2023-07-31T03:18:09;20.8;;;8.9;;
81815;SDS011;71249;52.084;5.304;2023-07-31T03:19:45;20.11;;;9.0;;
81815;SDS011;71249;52.084;5.304;2023-07-31T03:21:21;23.2;;;8.9;;
81815;SDS011;71249;52.084;5.304;2023-07-31T03:24:35;21.8;;;9.1;;
81815;SDS011;71249;52.084;5.304;2023-07-31T03:26:12;22.6;;;9.21;;
81815;SDS011;71249;52.084;5.304;2023-07-31T03:27:49;25.8;;;9.31;;
81815;SDS011;71249;52.084;5.304;2023-07-31T03:31:02;25.0;;;9.31;;
81815;SDS011;71249;52.084;5.304;2023-07-31T03:32:38;27.0;;;9.71;;
81815;SDS011;71249;52.084;5.304;2023-07-31T03:34:15;19.91;;;8.9;;
81815;SDS011;71249;52.084;5.304;2023-07-31T03:37:29;26.2;;;9.9;;
81815;SDS011;71249;52.084;5.304;2023-07-31T03:39:06;23.4;;;9.4;;
81815;SDS011;71249;52.084;5.304;2023-07-31T03:40:43;25.1;;;9.6;;
81815;SDS011;71249;52.084;5.304;2023-07-31T03:42:20;24.3;;;10.21;;
81815;SDS011;71249;52.084;5.304;2023-07-31T03:45:34;21.2;;;8.71;;
81815;SDS011;71249;52.084;5.304;2023-07-31T03:47:11;25.9;;;9.4;;
81815;SDS011;71249;52.084;5.304;2023-07-31T03:48:47;26.3;;;10.0;;
81815;SDS011;71249;52.084;5.304;2023-07-31T03:52:00;22.7;;;8.71;;
81815;SDS011;71249;52.084;5.304;2023-07-31T03:53:37;23.3;;;9.9;;
81815;SDS011;71249;52.084;5.304;2023-07-31T03:55:15;21.5;;;9.1;;
81815;SDS011;71249;52.084;5.304;2023-07-31T03:58:28;24.3;;;9.81;;
81815;SDS011;71249;52.084;5.304;2023-07-31T04:00:05;23.1;;;9.1;;
81815;SDS011;71249;52.084;5.304;2023-07-31T04:01:43;22.7;;;9.9;;
81815;SDS011;71249;52.084;5.304;2023-07-31T04:03:19;22.0;;;9.0;;
81815;SDS011;71249;52.084;5.304;2023-07-31T04:06:33;24.7;;;9.9;;
81815;SDS011;71249;52.084;5.304;2023-07-31T04:08:10;21.1;;;8.81;;
81815;SDS011;71249;52.084;5.304;2023-07-31T04:09:47;20.6;;;9.21;;
81815;SDS011;71249;52.084;5.304;2023-07-31T04:13:00;18.3;;;8.71;;
81815;SDS011;71249;52.084;5.304;2023-07-31T04:14:37;22.7;;;8.81;;
81815;SDS011;71249;52.084;5.304;2023-07-31T04:16:13;19.3;;;8.9;;
81815;SDS011;71249;52.084;5.304;2023-07-31T04:17:51;21.5;;;9.9;;
81815;SDS011;71249;52.084;5.304;2023-07-31T04:21:03;24.2;;;9.71;;
81815;SDS011;71249;52.084;5.304;2023-07-31T04:22:40;18.5;;;8.31;;
81815;SDS011;71249;52.084;5.304;2023-07-31T04:24:18;22.7;;;10.21;;
81815;SDS011;71249;52.084;5.304;2023-07-31T04:27:32;22.9;;;9.81;;
81815;SDS011;71249;52.084;5.304;2023-07-31T04:29:08;24.0;;;9.5;;
81815;SDS011;71249;52.084;5.304;2023-07-31T04:30:45;21.4;;;9.21;;
81815;SDS011;71249;52.084;5.304;2023-07-31T04:34:00;22.5;;;9.71;;
81815;SDS011;71249;52.084;5.304;2023-07-31T04:35:36;20.2;;;9.31;;
81815;SDS011;71249;52.084;5.304;2023-07-31T04:37:13;22.7;;;9.71;;
81815;SDS011;71249;52.084;5.304;2023-07-31T04:38:50;22.7;;;9.71;;
81815;SDS011;71249;52.084;5.304;2023-07-31T04:42:04;15.8;;;8.1;;
81815;SDS011;71249;52.084;5.304;2023-07-31T04:43:40;19.0;;;9.21;;
81815;SDS011;71249;52.084;5.304;2023-07-31T04:45:18;22.8;;;8.31;;
81815;SDS011;71249;52.084;5.304;2023-07-31T04:48:32;24.5;;;8.9;;
81815;SDS011;71249;52.084;5.304;2023-07-31T04:50:08;18.5;;;8.6;;
81815;SDS011;71249;52.084;5.304;2023-07-31T04:51:45;17.5;;;8.5;;
81815;SDS011;71249;52.084;5.304;2023-07-31T04:53:22;19.61;;;8.4;;
81815;SDS011;71249;52.084;5.304;2023-07-31T04:56:35;22.2;;;8.71;;
81815;SDS011;71249;52.084;5.304;2023-07-31T04:58:12;18.91;;;8.2;;
81815;SDS011;71249;52.084;5.304;2023-07-31T04:59:49;19.11;;;8.81;;
81815;SDS011;71249;52.084;5.304;2023-07-31T05:03:02;17.2;;;7.7;;
81815;SDS011;71249;52.084;5.304;2023-07-31T05:04:39;15.7;;;7.4;;
81815;SDS011;71249;52.084;5.304;2023-07-31T05:06:16;16.2;;;7.6;;
81815;SDS011;71249;52.084;5.304;2023-07-31T05:09:30;15.4;;;7.9;;
81815;SDS011;71249;52.084;5.304;2023-07-31T05:11:07;16.2;;;7.0;;
81815;SDS011;71249;52.084;5.304;2023-07-31T05:12:45;13.9;;;6.8;;
81815;SDS011;71249;52.084;5.304;2023-07-31T05:14:22;15.1;;;6.8;;
81815;SDS011;71249;52.084;5.304;2023-07-31T05:17:35;14.9;;;7.1;;
81815;SDS011;71249;52.084;5.304;2023-07-31T05:19:12;15.9;;;7.6;;
81815;SDS011;71249;52.084;5.304;2023-07-31T05:20:49;13.9;;;7.3;;
81815;SDS011;71249;52.084;5.304;2023-07-31T05:24:04;12.2;;;7.3;;
81815;SDS011;71249;52.084;5.304;2023-07-31T05:25:41;13.8;;;8.1;;
81815;SDS011;71249;52.084;5.304;2023-07-31T05:27:19;16.0;;;7.2;;
81815;SDS011;71249;52.084;5.304;2023-07-31T05:28:56;14.1;;;6.6;;
81815;SDS011;71249;52.084;5.304;2023-07-31T05:32:08;12.7;;;7.0;;
81815;SDS011;71249;52.084;5.304;2023-07-31T05:33:45;12.2;;;6.6;;
81815;SDS011;71249;52.084;5.304;2023-07-31T05:35:21;14.3;;;6.6;;
81815;SDS011;71249;52.084;5.304;2023-07-31T05:38:35;13.0;;;6.4;;
81815;SDS011;71249;52.084;5.304;2023-07-31T05:40:12;11.6;;;6.1;;
81815;SDS011;71249;52.084;5.304;2023-07-31T05:41:49;9.81;;;6.2;;
81815;SDS011;71249;52.084;5.304;2023-07-31T05:45:04;8.71;;;5.3;;
81815;SDS011;71249;52.084;5.304;2023-07-31T05:46:42;9.71;;;5.6;;
81815;SDS011;71249;52.084;5.304;2023-07-31T05:48:18;12.7;;;5.8;;
81815;SDS011;71249;52.084;5.304;2023-07-31T05:49:55;7.5;;;4.8;;
81815;SDS011;71249;52.084;5.304;2023-07-31T05:53:08;8.6;;;5.7;;
81815;SDS011;71249;52.084;5.304;2023-07-31T05:54:45;9.71;;;5.8;;
81815;SDS011;71249;52.084;5.304;2023-07-31T05:56:22;10.6;;;5.9;;
81815;SDS011;71249;52.084;5.304;2023-07-31T05:59:37;10.6;;;5.9;;
81815;SDS011;71249;52.084;5.304;2023-07-31T06:01:13;13.2;;;6.6;;
81815;SDS011;71249;52.084;5.304;2023-07-31T06:02:49;11.5;;;7.1;;
81815;SDS011;71249;52.084;5.304;2023-07-31T06:04:26;11.7;;;6.0;;
81815;SDS011;71249;52.084;5.304;2023-07-31T06:07:40;12.8;;;6.6;;
81815;SDS011;71249;52.084;5.304;2023-07-31T06:09:17;13.3;;;6.9;;
81815;SDS011;71249;52.084;5.304;2023-07-31T06:10:53;14.0;;;6.5;;
81815;SDS011;71249;52.084;5.304;2023-07-31T06:14:06;13.2;;;6.6;;
81815;SDS011;71249;52.084;5.304;2023-07-31T06:15:43;12.5;;;6.7;;
81815;SDS011;71249;52.084;5.304;2023-07-31T06:17:20;11.2;;;6.7;;
81815;SDS011;71249;52.084;5.304;2023-07-31T06:20:34;11.9;;;6.1;;
81815;SDS011;71249;52.084;5.304;2023-07-31T06:22:11;11.7;;;5.9;;
81815;SDS011;71249;52.084;5.304;2023-07-31T06:23:48;10.0;;;5.7;;
81815;SDS011;71249;52.084;5.304;2023-07-31T06:25:25;12.8;;;6.5;;
81815;SDS011;71249;52.084;5.304;2023-07-31T06:28:38;10.8;;;6.0;;
81815;SDS011;71249;52.084;5.304;2023-07-31T06:30:15;10.9;;;5.5;;
81815;SDS011;71249;52.084;5.304;2023-07-31T06:31:52;10.5;;;5.6;;
81815;SDS011;71249;52.084;5.304;2023-07-31T06:35:07;7.6;;;4.8;;
81815;SDS011;71249;52.084;5.304;2023-07-31T06:36:44;10.4;;;5.3;;
81815;SDS011;71249;52.084;5.304;2023-07-31T06:38:21;9.71;;;5.11;;
81815;SDS011;71249;52.084;5.304;2023-07-31T06:41:38;8.6;;;4.7;;
81815;SDS011;71249;52.084;5.304;2023-07-31T06:43:15;8.2;;;4.7;;
81815;SDS011;71249;52.084;5.304;2023-07-31T06:44:53;8.2;;;4.7;;
81815;SDS011;71249;52.084;5.304;2023-07-31T06:49:43;7.2;;;4.41;;
81815;SDS011;71249;52.084;5.304;2023-07-31T06:51:19;6.7;;;4.5;;
81815;SDS011;71249;52.084;5.304;2023-07-31T06:52:56;8.31;;;4.41;;
81815;SDS011;71249;52.084;5.304;2023-07-31T06:56:09;5.8;;;3.9;;
81815;SDS011;71249;52.084;5.304;2023-07-31T06:57:46;6.5;;;4.3;;
81815;SDS011;71249;52.084;5.304;2023-07-31T06:59:23;6.5;;;4.41;;
81815;SDS011;71249;52.084;5.304;2023-07-31T07:01:00;6.3;;;3.8;;
81815;SDS011;71249;52.084;5.304;2023-07-31T07:04:14;8.0;;;4.0;;
81815;SDS011;71249;52.084;5.304;2023-07-31T07:05:51;6.9;;;4.1;;
81815;SDS011;71249;52.084;5.304;2023-07-31T07:07:29;5.3;;;3.8;;
81815;SDS011;71249;52.084;5.304;2023-07-31T07:10:42;5.5;;;3.8;;
81815;SDS011;71249;52.084;5.304;2023-07-31T07:12:19;8.2;;;4.41;;
81815;SDS011;71249;52.084;5.304;2023-07-31T07:13:56;7.4;;;4.2;;
81815;SDS011;71249;52.084;5.304;2023-07-31T07:17:09;7.6;;;4.1;;
81815;SDS011;71249;52.084;5.304;2023-07-31T07:18:46;6.5;;;4.2;;
81815;SDS011;71249;52.084;5.304;2023-07-31T07:20:24;6.7;;;4.1;;
81815;SDS011;71249;52.084;5.304;2023-07-31T07:22:01;8.2;;;4.61;;
81815;SDS011;71249;52.084;5.304;2023-07-31T07:25:14;6.3;;;4.1;;
81815;SDS011;71249;52.084;5.304;2023-07-31T07:26:52;6.0;;;4.3;;
81815;SDS011;71249;52.084;5.304;2023-07-31T07:28:28;6.7;;;4.0;;
81815;SDS011;71249;52.084;5.304;2023-07-31T07:31:43;5.8;;;3.8;;
81815;SDS011;71249;52.084;5.304;2023-07-31T07:33:20;5.6;;;3.8;;
81815;SDS011;71249;52.084;5.304;2023-07-31T07:34:58;7.4;;;4.0;;
81815;SDS011;71249;52.084;5.304;2023-07-31T07:36:34;5.11;;;3.4;;
81815;SDS011;71249;52.084;5.304;2023-07-31T07:39:50;5.2;;;3.6;;
81815;SDS011;71249;52.084;5.304;2023-07-31T07:41:26;7.1;;;4.2;;
81815;SDS011;71249;52.084;5.304;2023-07-31T07:43:03;6.0;;;4.1;;
81815;SDS011;71249;52.084;5.304;2023-07-31T07:46:16;6.3;;;3.6;;
81815;SDS011;71249;52.084;5.304;2023-07-31T07:47:53;4.3;;;3.3;;
81815;SDS011;71249;52.084;5.304;2023-07-31T07:49:31;6.4;;;3.8;;
81815;SDS011;71249;52.084;5.304;2023-07-31T07:51:08;5.6;;;3.5;;
81815;SDS011;71249;52.084;5.304;2023-07-31T07:54:22;4.8;;;3.6;;
81815;SDS011;71249;52.084;5.304;2023-07-31T07:55:59;5.2;;;3.4;;
81815;SDS011;71249;52.084;5.304;2023-07-31T07:57:36;6.9;;;3.6;;
81815;SDS011;71249;52.084;5.304;2023-07-31T08:00:50;6.2;;;3.7;;
81815;SDS011;71249;52.084;5.304;2023-07-31T08:02:27;4.61;;;3.1;;
81815;SDS011;71249;52.084;5.304;2023-07-31T08:04:04;4.3;;;2.5;;
81815;SDS011;71249;52.084;5.304;2023-07-31T08:07:17;3.7;;;2.5;;
81815;SDS011;71249;52.084;5.304;2023-07-31T08:08:54;3.3;;;2.5;;
81815;SDS011;71249;52.084;5.304;2023-07-31T08:10:31;4.0;;;2.8;;
81815;SDS011;71249;52.084;5.304;2023-07-31T08:12:08;3.2;;;2.31;;
81815;SDS011;71249;52.084;5.304;2023-07-31T08:15:22;3.7;;;2.6;;
81815;SDS011;71249;52.084;5.304;2023-07-31T08:17:00;3.5;;;2.4;;
81815;SDS011;71249;52.084;5.304;2023-07-31T08:18:38;5.11;;;2.5;;
81815;SDS011;71249;52.084;5.304;2023-07-31T08:21:52;3.2;;;2.5;;
81815;SDS011;71249;52.084;5.304;2023-07-31T08:23:29;4.8;;;2.4;;
81815;SDS011;71249;52.084;5.304;2023-07-31T08:25:06;4.0;;;2.31;;
81815;SDS011;71249;52.084;5.304;2023-07-31T08:26:43;3.3;;;2.31;;
81815;SDS011;71249;52.084;5.304;2023-07-31T08:29:58;3.1;;;1.9;;
81815;SDS011;71249;52.084;5.304;2023-07-31T08:31:35;3.1;;;1.8;;
81815;SDS011;71249;52.084;5.304;2023-07-31T08:33:12;2.21;;;2.0;;
81815;SDS011;71249;52.084;5.304;2023-07-31T08:36:25;2.5;;;1.7;;
81815;SDS011;71249;52.084;5.304;2023-07-31T08:38:02;3.4;;;1.8;;
81815;SDS011;71249;52.084;5.304;2023-07-31T08:39:40;2.7;;;1.6;;
81815;SDS011;71249;52.084;5.304;2023-07-31T08:42:55;2.5;;;1.9;;
81815;SDS011;71249;52.084;5.304;2023-07-31T08:44:32;3.2;;;1.6;;
81815;SDS011;71249;52.084;5.304;2023-07-31T08:46:11;3.0;;;2.0;;
81815;SDS011;71249;52.084;5.304;2023-07-31T08:47:49;2.6;;;1.8;;
81815;SDS011;71249;52.084;5.304;2023-07-31T08:51:06;3.2;;;1.9;;
81815;SDS011;71249;52.084;5.304;2023-07-31T08:52:45;2.5;;;2.1;;
81815;SDS011;71249;52.084;5.304;2023-07-31T08:54:24;2.5;;;2.1;;
81815;SDS011;71249;52.084;5.304;2023-07-31T08:56:01;3.2;;;2.0;;
81815;SDS011;71249;52.084;5.304;2023-07-31T08:59:18;1.8;;;1.6;;
81815;SDS011;71249;52.084;5.304;2023-07-31T09:00:58;2.7;;;1.9;;
81815;SDS011;71249;52.084;5.304;2023-07-31T09:02:41;2.7;;;1.7;;
81815;SDS011;71249;52.084;5.304;2023-07-31T09:04:28;2.21;;;1.9;;
81815;SDS011;71249;52.084;5.304;2023-07-31T09:07:43;2.4;;;1.7;;
81815;SDS011;71249;52.084;5.304;2023-07-31T09:09:23;2.31;;;2.0;;
81815;SDS011;71249;52.084;5.304;2023-07-31T09:11:00;3.3;;;1.8;;
81815;SDS011;71249;52.084;5.304;2023-07-31T09:14:16;2.0;;;1.9;;
81815;SDS011;71249;52.084;5.304;2023-07-31T09:15:55;2.31;;;2.0;;
81815;SDS011;71249;52.084;5.304;2023-07-31T09:17:32;4.8;;;2.6;;
81815;SDS011;71249;52.084;5.304;2023-07-31T09:19:10;2.9;;;2.31;;
81815;SDS011;71249;52.084;5.304;2023-07-31T09:22:37;2.5;;;2.21;;
81815;SDS011;71249;52.084;5.304;2023-07-31T09:24:14;3.5;;;2.6;;
81815;SDS011;71249;52.084;5.304;2023-07-31T09:26:01;2.5;;;2.31;;
81815;SDS011;71249;52.084;5.304;2023-07-31T09:27:45;2.6;;;2.4;;
81815;SDS011;71249;52.084;5.304;2023-07-31T09:31:01;2.9;;;2.31;;
81815;SDS011;71249;52.084;5.304;2023-07-31T09:32:38;3.5;;;2.7;;
81815;SDS011;71249;52.084;5.304;2023-07-31T09:35:52;2.8;;;2.6;;
81815;SDS011;71249;52.084;5.304;2023-07-31T09:39:07;3.7;;;2.8;;
81815;SDS011;71249;52.084;5.304;2023-07-31T09:40:46;4.41;;;2.8;;
81815;SDS011;71249;52.084;5.304;2023-07-31T09:42:25;4.0;;;2.9;;
81815;SDS011;71249;52.084;5.304;2023-07-31T09:45:40;3.3;;;2.8;;
81815;SDS011;71249;52.084;5.304;2023-07-31T09:47:22;2.9;;;2.6;;
81815;SDS011;71249;52.084;5.304;2023-07-31T09:49:09;4.41;;;2.7;;
81815;SDS011;71249;52.084;5.304;2023-07-31T09:50:48;3.9;;;3.0;;
81815;SDS011;71249;52.084;5.304;2023-07-31T09:54:03;3.8;;;2.8;;
81815;SDS011;71249;52.084;5.304;2023-07-31T09:55:40;3.3;;;2.5;;
81815;SDS011;71249;52.084;5.304;2023-07-31T09:57:18;3.2;;;2.4;;
81815;SDS011;71249;52.084;5.304;2023-07-31T09:58:58;3.4;;;2.4;;
81815;SDS011;71249;52.084;5.304;2023-07-31T10:02:15;3.1;;;2.4;;
81815;SDS011;71249;52.084;5.304;2023-07-31T10:03:57;3.4;;;2.5;;
81815;SDS011;71249;52.084;5.304;2023-07-31T10:05:36;3.5;;;3.1;;
81815;SDS011;71249;52.084;5.304;2023-07-31T10:07:16;3.3;;;2.8;;
81815;SDS011;71249;52.084;5.304;2023-07-31T10:10:32;4.41;;;3.3;;
81815;SDS011;71249;52.084;5.304;2023-07-31T10:12:12;3.7;;;3.4;;
81815;SDS011;71249;52.084;5.304;2023-07-31T10:13:55;5.8;;;3.8;;
81815;SDS011;71249;52.084;5.304;2023-07-31T10:15:32;4.0;;;3.6;;
81815;SDS011;71249;52.084;5.304;2023-07-31T10:18:48;4.61;;;3.9;;
81815;SDS011;71249;52.084;5.304;2023-07-31T10:20:26;4.61;;;3.9;;
81815;SDS011;71249;52.084;5.304;2023-07-31T10:22:05;4.8;;;4.3;;
81815;SDS011;71249;52.084;5.304;2023-07-31T10:25:21;6.6;;;4.8;;
81815;SDS011;71249;52.084;5.304;2023-07-31T10:26:59;4.7;;;4.3;;
81815;SDS011;71249;52.084;5.304;2023-07-31T10:28:37;6.6;;;5.3;;
81815;SDS011;71249;52.084;5.304;2023-07-31T10:30:16;5.2;;;4.1;;
81815;SDS011;71249;52.084;5.304;2023-07-31T10:33:34;6.5;;;5.2;;
81815;SDS011;71249;52.084;5.304;2023-07-31T10:35:11;6.2;;;5.2;;
81815;SDS011;71249;52.084;5.304;2023-07-31T10:36:48;7.1;;;4.7;;
81815;SDS011;71249;52.084;5.304;2023-07-31T10:40:02;6.3;;;4.7;;
81815;SDS011;71249;52.084;5.304;2023-07-31T10:41:41;7.8;;;5.6;;
81815;SDS011;71249;52.084;5.304;2023-07-31T10:43:25;7.2;;;5.11;;
81815;SDS011;71249;52.084;5.304;2023-07-31T10:45:03;7.0;;;5.4;;
81815;SDS011;71249;52.084;5.304;2023-07-31T10:48:21;5.6;;;5.11;;
81815;SDS011;71249;52.084;5.304;2023-07-31T10:50:31;5.4;;;4.2;;
81815;SDS011;71249;52.084;5.304;2023-07-31T10:52:10;5.4;;;4.91;;
81815;SDS011;71249;52.084;5.304;2023-07-31T10:53:48;6.1;;;4.5;;
81815;SDS011;71249;52.084;5.304;2023-07-31T10:55:26;5.6;;;4.7;;
81815;SDS011;71249;52.084;5.304;2023-07-31T10:59:00;5.3;;;4.8;;
81815;SDS011;71249;52.084;5.304;2023-07-31T11:00:38;5.9;;;4.3;;
81815;SDS011;71249;52.084;5.304;2023-07-31T11:02:23;4.5;;;4.1;;
81815;SDS011;71249;52.084;5.304;2023-07-31T11:04:09;4.1;;;3.7;;
81815;SDS011;71249;52.084;5.304;2023-07-31T11:05:49;4.1;;;3.7;;
81815;SDS011;71249;52.084;5.304;2023-07-31T11:09:24;4.8;;;4.2;;
81815;SDS011;71249;52.084;5.304;2023-07-31T11:11:05;5.5;;;3.7;;
81815;SDS011;71249;52.084;5.304;2023-07-31T11:12:44;5.0;;;3.5;;
81815;SDS011;71249;52.084;5.304;2023-07-31T11:14:22;3.3;;;3.1;;
81815;SDS011;71249;52.084;5.304;2023-07-31T11:17:38;2.9;;;2.7;;
81815;SDS011;71249;52.084;5.304;2023-07-31T11:19:20;3.6;;;3.0;;
81815;SDS011;71249;52.084;5.304;2023-07-31T11:20:57;3.1;;;2.6;;
81815;SDS011;71249;52.084;5.304;2023-07-31T11:22:35;2.8;;;2.21;;
81815;SDS011;71249;52.084;5.304;2023-07-31T11:25:49;2.4;;;2.21;;
81815;SDS011;71249;52.084;5.304;2023-07-31T11:27:27;3.2;;;2.4;;
81815;SDS011;71249;52.084;5.304;2023-07-31T11:29:10;4.0;;;2.5;;
81815;SDS011;71249;52.084;5.304;2023-07-31T11:32:23;2.4;;;2.21;;
81815;SDS011;71249;52.084;5.304;2023-07-31T11:34:04;3.2;;;2.9;;
81815;SDS011;71249;52.084;5.304;2023-07-31T11:35:44;3.7;;;2.8;;
81815;SDS011;71249;52.084;5.304;2023-07-31T11:37:23;3.0;;;2.7;;
81815;SDS011;71249;52.084;5.304;2023-07-31T11:40:42;2.9;;;2.6;;
81815;SDS011;71249;52.084;5.304;2023-07-31T11:42:19;4.0;;;2.8;;
81815;SDS011;71249;52.084;5.304;2023-07-31T11:43:59;3.4;;;3.1;;
81815;SDS011;71249;52.084;5.304;2023-07-31T11:45:37;5.11;;;3.9;;
81815;SDS011;71249;52.084;5.304;2023-07-31T11:48:57;4.3;;;3.9;;
81815;SDS011;71249;52.084;5.304;2023-07-31T11:50:36;4.8;;;4.3;;
81815;SDS011;71249;52.084;5.304;2023-07-31T11:52:13;4.41;;;3.9;;
81815;SDS011;71249;52.084;5.304;2023-07-31T11:53:52;5.8;;;4.0;;
81815;SDS011;71249;52.084;5.304;2023-07-31T11:57:08;4.8;;;4.3;;
81815;SDS011;71249;52.084;5.304;2023-07-31T11:58:45;5.9;;;4.5;;
81815;SDS011;71249;52.084;5.304;2023-07-31T12:00:23;5.7;;;4.61;;
81815;SDS011;71249;52.084;5.304;2023-07-31T12:03:37;5.4;;;4.1;;
81815;SDS011;71249;52.084;5.304;2023-07-31T12:05:14;4.2;;;3.8;;
81815;SDS011;71249;52.084;5.304;2023-07-31T12:06:52;4.41;;;3.8;;
81815;SDS011;71249;52.084;5.304;2023-07-31T12:08:30;4.41;;;3.8;;
81815;SDS011;71249;52.084;5.304;2023-07-31T12:11:44;3.7;;;3.4;;
81815;SDS011;71249;52.084;5.304;2023-07-31T12:13:23;4.0;;;3.4;;
81815;SDS011;71249;52.084;5.304;2023-07-31T12:15:01;3.5;;;3.0;;
81815;SDS011;71249;52.084;5.304;2023-07-31T12:18:16;3.5;;;3.2;;
81815;SDS011;71249;52.084;5.304;2023-07-31T12:19:56;3.0;;;2.7;;
81815;SDS011;71249;52.084;5.304;2023-07-31T12:21:32;3.4;;;3.1;;
81815;SDS011;71249;52.084;5.304;2023-07-31T12:23:14;3.5;;;3.0;;
81815;SDS011;71249;52.084;5.304;2023-07-31T12:26:33;4.8;;;3.2;;
81815;SDS011;71249;52.084;5.304;2023-07-31T12:28:10;3.8;;;3.5;;
81815;SDS011;71249;52.084;5.304;2023-07-31T12:29:47;4.2;;;3.1;;
81815;SDS011;71249;52.084;5.304;2023-07-31T12:33:05;3.5;;;3.2;;
81815;SDS011;71249;52.084;5.304;2023-07-31T12:34:43;2.6;;;2.4;;
81815;SDS011;71249;52.084;5.304;2023-07-31T12:36:21;2.6;;;2.4;;
81815;SDS011;71249;52.084;5.304;2023-07-31T12:38:00;3.5;;;3.2;;
81815;SDS011;71249;52.084;5.304;2023-07-31T12:41:14;3.3;;;3.0;;
81815;SDS011;71249;52.084;5.304;2023-07-31T12:42:51;4.8;;;3.1;;
81815;SDS011;71249;52.084;5.304;2023-07-31T12:44:28;3.7;;;3.4;;
81815;SDS011;71249;52.084;5.304;2023-07-31T12:47:43;3.9;;;3.6;;
81815;SDS011;71249;52.084;5.304;2023-07-31T12:49:20;3.2;;;2.9;;
81815;SDS011;71249;52.084;5.304;2023-07-31T12:50:58;4.61;;;3.3;;
81815;SDS011;71249;52.084;5.304;2023-07-31T12:52:34;3.6;;;3.3;;
81815;SDS011;71249;52.084;5.304;2023-07-31T12:55:49;4.41;;;4.0;;
81815;SDS011;71249;52.084;5.304;2023-07-31T12:57:26;4.7;;;3.7;;
81815;SDS011;71249;52.084;5.304;2023-07-31T12:59:02;3.9;;;3.6;;